Time;durP1;ratioP1;P1;durP2;ratioP2;P2;SDS_P1;SDS_P2;PMS_P1;PMS_P2;Temp;Humidity;BMP_temperature;BMP_pressure;BME280_temperature;BME280_humidity;BME280_pressure;Samples;Min_cycle;Max_cycle;Signal;HPM_P1;HPM_P2
2023/10/23 00:00:40;;;;;;;2.78;1.67;;;11.20;99.90;;;;;;5031713;28;20104;-68
2023/10/23 00:03:06;;;;;;;2.05;1.65;;;11.20;99.90;;;;;;5032995;28;20112;-68
2023/10/23 00:05:31;;;;;;;1.77;1.30;;;11.30;99.90;;;;;;5031923;28;20068;-68
2023/10/23 00:07:57;;;;;;;2.55;1.42;;;11.30;99.90;;;;;;5031318;28;20026;-68
2023/10/23 00:10:22;;;;;;;3.72;1.77;;;11.20;99.90;;;;;;5029113;28;20025;-68
2023/10/23 00:12:48;;;;;;;2.08;1.02;;;11.20;99.90;;;;;;5025105;28;20108;-67
2023/10/23 00:15:14;;;;;;;5.82;1.77;;;11.20;99.90;;;;;;5033821;28;20083;-67
2023/10/23 00:17:39;;;;;;;2.85;1.40;;;11.20;99.90;;;;;;5029269;28;20025;-68
2023/10/23 00:20:05;;;;;;;7.47;1.80;;;11.20;99.90;;;;;;5026666;28;20033;-67
2023/10/23 00:22:31;;;;;;;3.58;1.30;;;11.20;99.90;;;;;;5027719;28;20031;-67
2023/10/23 00:24:56;;;;;;;1.80;1.35;;;11.20;99.90;;;;;;5026792;28;20108;-67
2023/10/23 00:27:22;;;;;;;1.95;1.23;;;11.20;99.90;;;;;;5027197;28;20091;-68
2023/10/23 00:29:47;;;;;;;1.63;1.50;;;11.20;99.90;;;;;;5028472;28;20455;-67
2023/10/23 00:32:13;;;;;;;1.50;1.27;;;11.20;99.90;;;;;;5028048;28;20032;-68
2023/10/23 00:34:39;;;;;;;1.80;1.42;;;11.20;99.90;;;;;;5024679;28;20026;-68
2023/10/23 00:37:04;;;;;;;5.55;1.40;;;11.20;99.90;;;;;;5028038;28;20037;-67
2023/10/23 00:39:30;;;;;;;2.50;1.75;;;11.20;99.90;;;;;;5029452;28;20049;-68
2023/10/23 00:41:55;;;;;;;3.40;1.50;;;11.20;99.90;;;;;;5029720;28;20096;-67
2023/10/23 00:44:21;;;;;;;1.92;1.30;;;11.10;99.90;;;;;;5032698;28;20029;-67
2023/10/23 00:46:47;;;;;;;6.63;1.60;;;11.10;99.90;;;;;;5028829;28;20415;-67
2023/10/23 00:49:12;;;;;;;1.67;1.40;;;11.20;99.90;;;;;;5035924;28;20552;-68
2023/10/23 00:51:38;;;;;;;2.17;1.73;;;11.20;99.90;;;;;;5028454;28;20022;-68
2023/10/23 00:54:05;;;;;;;5.15;1.40;;;11.20;99.90;;;;;;5023950;28;20026;-68
2023/10/23 00:56:32;;;;;;;4.82;1.83;;;11.20;99.90;;;;;;5032742;28;20037;-67
2023/10/23 00:58:58;;;;;;;2.28;1.58;;;11.10;99.90;;;;;;5028189;28;20021;-70
2023/10/23 01:01:25;;;;;;;3.55;2.17;;;11.10;99.90;;;;;;5030417;28;20363;-68
2023/10/23 01:03:50;;;;;;;2.28;1.75;;;11.10;99.90;;;;;;5033300;28;20076;-67
2023/10/23 01:06:16;;;;;;;4.63;1.30;;;11.10;99.90;;;;;;5030882;28;20022;-67
2023/10/23 01:08:42;;;;;;;3.70;1.52;;;11.10;99.90;;;;;;5026727;28;20483;-67
2023/10/23 01:11:08;;;;;;;3.53;1.70;;;11.00;99.90;;;;;;5025448;28;20104;-67
2023/10/23 01:13:34;;;;;;;5.88;1.85;;;10.90;99.90;;;;;;5032455;28;20117;-68
2023/10/23 01:15:59;;;;;;;3.90;1.70;;;10.80;99.90;;;;;;5030627;28;20021;-68
2023/10/23 01:18:25;;;;;;;4.32;1.50;;;10.70;99.90;;;;;;5031025;28;20021;-67
2023/10/23 01:20:51;;;;;;;4.45;1.38;;;10.60;99.90;;;;;;5030076;28;20048;-67
2023/10/23 01:23:16;;;;;;;2.42;1.15;;;10.50;99.90;;;;;;5035297;28;20025;-67
2023/10/23 01:25:42;;;;;;;1.83;1.52;;;10.30;99.90;;;;;;5033781;28;20057;-67
2023/10/23 01:28:07;;;;;;;5.22;1.42;;;10.20;99.90;;;;;;5032647;28;20037;-67
2023/10/23 01:30:33;;;;;;;2.70;1.70;;;10.10;99.90;;;;;;5032691;28;20057;-67
2023/10/23 01:32:59;;;;;;;6.75;1.55;;;10.00;99.90;;;;;;5032663;28;20029;-67
2023/10/23 01:35:25;;;;;;;2.65;1.60;;;10.00;99.90;;;;;;5035442;28;20054;-67
2023/10/23 01:37:51;;;;;;;2.70;1.70;;;9.90;99.90;;;;;;5031727;28;20060;-67
2023/10/23 01:40:18;;;;;;;3.35;1.65;;;9.80;99.90;;;;;;5032882;28;20403;-67
2023/10/23 01:42:44;;;;;;;3.10;1.75;;;9.80;99.90;;;;;;5030153;28;20478;-67
2023/10/23 01:45:10;;;;;;;6.15;1.83;;;9.70;99.90;;;;;;5033012;28;20482;-67
2023/10/23 01:47:36;;;;;;;2.67;1.50;;;9.70;99.90;;;;;;5029241;28;20490;-67
2023/10/23 01:50:01;;;;;;;11.73;1.98;;;9.70;99.90;;;;;;5029582;28;20111;-68
2023/10/23 01:52:27;;;;;;;4.53;1.98;;;9.60;99.90;;;;;;5031311;28;20104;-68
2023/10/23 01:54:53;;;;;;;3.17;1.77;;;9.60;99.90;;;;;;5036152;28;20034;-67
2023/10/23 01:57:18;;;;;;;2.38;1.65;;;9.50;99.90;;;;;;5031133;28;20052;-67
2023/10/23 01:59:44;;;;;;;6.38;2.05;;;9.40;99.90;;;;;;5031655;28;20107;-67
2023/10/23 02:02:10;;;;;;;4.20;2.10;;;9.40;99.90;;;;;;5026981;28;20431;-67
2023/10/23 02:04:38;;;;;;;4.72;2.00;;;9.40;99.90;;;;;;5032477;28;20025;-67
2023/10/23 02:07:04;;;;;;;2.67;2.08;;;9.40;99.90;;;;;;5035579;28;20029;-67
2023/10/23 02:09:29;;;;;;;3.53;1.70;;;9.50;99.90;;;;;;5029706;28;20025;-68
2023/10/23 02:11:55;;;;;;;12.35;2.08;;;9.40;99.90;;;;;;5030306;28;20057;-67
2023/10/23 02:14:20;;;;;;;6.20;2.08;;;9.40;99.90;;;;;;5031805;28;20029;-67
2023/10/23 02:16:46;;;;;;;2.95;1.95;;;9.40;99.90;;;;;;5031882;28;20048;-67
2023/10/23 02:19:13;;;;;;;2.85;1.80;;;9.30;99.90;;;;;;5026177;28;20073;-67
2023/10/23 02:21:38;;;;;;;6.30;2.15;;;9.20;99.90;;;;;;5035128;28;20052;-67
2023/10/23 02:24:04;;;;;;;3.13;2.15;;;9.20;99.90;;;;;;5043233;28;20025;-68
2023/10/23 02:26:30;;;;;;;7.03;2.17;;;9.20;99.90;;;;;;5027914;28;20091;-67
2023/10/23 02:28:55;;;;;;;3.35;2.00;;;9.10;99.90;;;;;;5033069;28;20036;-67
2023/10/23 02:31:22;;;;;;;6.80;3.58;;;9.00;99.90;;;;;;5028730;28;20033;-67
2023/10/23 02:33:48;;;;;;;6.57;2.42;;;9.00;99.90;;;;;;5036444;28;20037;-67
2023/10/23 02:36:15;;;;;;;3.53;1.95;;;8.90;99.90;;;;;;5028354;28;20430;-67
2023/10/23 02:38:41;;;;;;;7.32;2.60;;;8.90;99.90;;;;;;5033992;28;20032;-67
2023/10/23 02:41:06;;;;;;;7.30;2.00;;;8.90;99.90;;;;;;5031753;28;20117;-67
2023/10/23 02:43:32;;;;;;;5.03;2.10;;;8.80;99.90;;;;;;5036940;28;20104;-67
2023/10/23 02:46:01;;;;;;;2.75;1.80;;;8.80;99.90;;;;;;5033719;28;20029;-67
2023/10/23 02:48:27;;;;;;;9.57;2.90;;;8.80;99.90;;;;;;5027415;28;20044;-67
2023/10/23 02:50:53;;;;;;;5.07;2.40;;;8.80;99.90;;;;;;5028071;28;20034;-67
2023/10/23 02:53:19;;;;;;;6.13;2.55;;;8.70;99.90;;;;;;5030088;28;20034;-67
2023/10/23 02:55:44;;;;;;;4.28;2.10;;;8.70;99.90;;;;;;5028541;28;20038;-67
2023/10/23 02:58:10;;;;;;;6.15;3.45;;;8.70;99.90;;;;;;5029650;28;20049;-67
2023/10/23 03:00:35;;;;;;;6.72;2.72;;;8.70;99.90;;;;;;5029244;28;20083;-67
2023/10/23 03:03:01;;;;;;;3.67;2.55;;;8.60;99.90;;;;;;5024839;28;20084;-67
2023/10/23 03:05:26;;;;;;;4.03;2.10;;;8.60;99.90;;;;;;5029025;28;20029;-66
2023/10/23 03:07:52;;;;;;;9.88;2.60;;;8.60;99.90;;;;;;5026275;28;20029;-67
2023/10/23 03:10:18;;;;;;;8.45;2.20;;;8.50;99.90;;;;;;5025506;28;20025;-67
2023/10/23 03:12:43;;;;;;;4.18;2.38;;;8.50;99.90;;;;;;5027510;28;20029;-67
2023/10/23 03:15:09;;;;;;;6.50;2.70;;;8.50;99.90;;;;;;5028085;28;20454;-66
2023/10/23 03:17:35;;;;;;;5.05;2.00;;;8.40;99.90;;;;;;5023576;28;20048;-67
2023/10/23 03:20:00;;;;;;;3.97;2.83;;;8.40;99.90;;;;;;5027068;28;20029;-67
2023/10/23 03:22:26;;;;;;;6.57;2.58;;;8.30;99.90;;;;;;5034240;28;20021;-67
2023/10/23 03:24:51;;;;;;;3.17;2.15;;;8.40;99.90;;;;;;5032508;28;20035;-68
2023/10/23 03:27:17;;;;;;;6.40;2.90;;;8.30;99.90;;;;;;5030264;28;20047;-67
2023/10/23 03:29:43;;;;;;;4.28;2.20;;;8.30;99.90;;;;;;5027265;28;20029;-67
2023/10/23 03:32:09;;;;;;;11.05;2.47;;;8.30;99.90;;;;;;5031377;28;20098;-67
2023/10/23 03:34:35;;;;;;;7.40;2.88;;;8.30;99.90;;;;;;5033589;28;20502;-67
2023/10/23 03:37:00;;;;;;;4.70;2.80;;;8.40;99.90;;;;;;5032133;28;20633;-67
2023/10/23 03:39:26;;;;;;;8.20;2.80;;;8.50;99.90;;;;;;5027361;28;20040;-67
2023/10/23 03:41:52;;;;;;;5.90;2.92;;;8.50;99.90;;;;;;5029196;28;20078;-67
2023/10/23 03:44:17;;;;;;;4.97;2.30;;;8.50;99.90;;;;;;5030495;28;20022;-67
2023/10/23 03:46:43;;;;;;;5.95;2.53;;;8.40;99.90;;;;;;5029461;28;20108;-69
2023/10/23 03:49:09;;;;;;;4.68;2.28;;;8.40;99.90;;;;;;5029640;28;20053;-67
2023/10/23 03:51:34;;;;;;;9.20;2.90;;;8.40;99.90;;;;;;5027435;28;20053;-68
2023/10/23 03:54:00;;;;;;;7.28;2.53;;;8.40;99.90;;;;;;5030187;28;20079;-68
2023/10/23 03:56:26;;;;;;;6.50;2.92;;;8.30;99.90;;;;;;5027956;28;20479;-67
2023/10/23 03:58:51;;;;;;;3.67;2.22;;;8.30;99.90;;;;;;5029455;28;20491;-69
2023/10/23 04:01:17;;;;;;;6.80;2.00;;;8.20;99.90;;;;;;5024641;28;20121;-67
2023/10/23 04:03:42;;;;;;;5.53;2.70;;;8.20;99.90;;;;;;5027988;28;20072;-68
2023/10/23 04:06:08;;;;;;;5.38;2.90;;;8.20;99.90;;;;;;5026687;28;20034;-66
2023/10/23 04:08:34;;;;;;;8.05;3.28;;;8.20;99.90;;;;;;5025883;28;20521;-66
2023/10/23 04:10:59;;;;;;;9.52;3.65;;;8.10;99.90;;;;;;5027796;28;20036;-67
2023/10/23 04:13:25;;;;;;;6.28;3.15;;;8.20;99.90;;;;;;5046667;28;20079;-67
2023/10/23 04:15:52;;;;;;;9.73;3.05;;;8.10;99.90;;;;;;5030139;28;20484;-67
2023/10/23 04:18:17;;;;;;;4.53;2.67;;;8.10;99.90;;;;;;5023801;28;20036;-67
2023/10/23 04:20:43;;;;;;;5.00;2.83;;;8.00;99.90;;;;;;5026729;28;20022;-67
2023/10/23 04:23:09;;;;;;;8.25;3.30;;;8.00;99.90;;;;;;5027777;28;20033;-67
2023/10/23 04:25:34;;;;;;;6.80;2.90;;;8.00;99.90;;;;;;5029077;28;20570;-66
2023/10/23 04:28:00;;;;;;;7.82;3.03;;;8.00;99.90;;;;;;5034439;28;20051;-67
2023/10/23 04:30:25;;;;;;;9.40;2.95;;;7.90;99.90;;;;;;5029417;28;20022;-66
2023/10/23 04:32:51;;;;;;;7.15;3.72;;;7.90;99.90;;;;;;5029607;28;20025;-67
2023/10/23 04:35:16;;;;;;;6.03;3.22;;;7.90;99.90;;;;;;5034638;28;20206;-67
2023/10/23 04:37:42;;;;;;;7.03;3.00;;;7.90;99.90;;;;;;5035060;28;20104;-67
2023/10/23 04:40:08;;;;;;;6.63;3.65;;;7.90;99.90;;;;;;5034228;28;20029;-66
2023/10/23 04:42:34;;;;;;;8.52;4.40;;;8.00;99.90;;;;;;5031962;28;20037;-66
2023/10/23 04:44:59;;;;;;;8.55;3.60;;;8.00;99.90;;;;;;5033803;28;20399;-67
2023/10/23 04:47:25;;;;;;;13.00;3.80;;;8.10;99.90;;;;;;5027659;28;20148;-67
2023/10/23 04:49:51;;;;;;;6.43;3.70;;;8.10;99.90;;;;;;5032468;28;20646;-67
2023/10/23 04:52:18;;;;;;;9.93;3.85;;;8.10;99.90;;;;;;5029575;28;20522;-68
2023/10/23 04:54:43;;;;;;;5.80;3.60;;;8.10;99.90;;;;;;5031656;28;20372;-67
2023/10/23 04:57:09;;;;;;;6.13;3.58;;;8.00;99.90;;;;;;5033363;28;20037;-67
2023/10/23 04:59:35;;;;;;;6.30;3.53;;;8.00;99.90;;;;;;5032018;28;20129;-67
2023/10/23 05:02:02;;;;;;;9.50;3.72;;;8.00;99.90;;;;;;5029825;28;20028;-67
2023/10/23 05:04:30;;;;;;;5.72;3.13;;;8.00;99.90;;;;;;5032336;28;20103;-66
2023/10/23 05:06:57;;;;;;;8.55;4.13;;;7.90;99.90;;;;;;5031706;28;20036;-67
2023/10/23 05:09:22;;;;;;;6.82;3.55;;;7.90;99.90;;;;;;5032102;28;20398;-67
2023/10/23 05:11:48;;;;;;;10.18;3.47;;;8.00;99.90;;;;;;5030626;28;20040;-66
2023/10/23 05:14:14;;;;;;;6.65;3.65;;;8.00;99.90;;;;;;5030755;28;20386;-66
2023/10/23 05:16:39;;;;;;;11.80;3.50;;;7.90;99.90;;;;;;5025267;28;20490;-67
2023/10/23 05:19:05;;;;;;;7.53;3.67;;;7.90;99.90;;;;;;5027281;28;20021;-67
2023/10/23 05:21:30;;;;;;;11.48;3.90;;;7.90;99.90;;;;;;5045528;28;20017;-67
2023/10/23 05:23:56;;;;;;;9.52;3.10;;;7.90;99.90;;;;;;5033977;28;20029;-67
2023/10/23 05:26:22;;;;;;;10.75;3.88;;;7.90;99.90;;;;;;5033274;28;20078;-66
2023/10/23 05:28:51;;;;;;;9.23;3.47;;;7.90;99.90;;;;;;5030647;28;20037;-67
2023/10/23 05:31:17;;;;;;;6.65;3.83;;;8.00;99.90;;;;;;5026938;28;20026;-66
2023/10/23 05:33:42;;;;;;;9.75;4.10;;;8.00;99.90;;;;;;5031512;28;20025;-67
2023/10/23 05:36:09;;;;;;;11.57;3.97;;;7.90;99.90;;;;;;5034599;28;20022;-67
2023/10/23 05:38:36;;;;;;;8.68;4.78;;;7.90;99.90;;;;;;5030747;28;20064;-67
2023/10/23 05:41:02;;;;;;;14.20;7.85;;;7.90;99.90;;;;;;5028915;28;21796;-67
2023/10/23 05:43:28;;;;;;;17.50;7.88;;;7.80;99.90;;;;;;5028286;28;20108;-67
2023/10/23 05:46:01;;;;;;;11.77;8.35;;;7.80;99.90;;;;;;5031991;28;20156;-67
2023/10/23 05:48:26;;;;;;;15.35;6.57;;;7.90;99.90;;;;;;5032889;28;20101;-66
2023/10/23 05:51:00;;;;;;;12.63;6.93;;;7.80;99.90;;;;;;5032840;28;20109;-67
2023/10/23 05:53:26;;;;;;;13.15;6.53;;;7.80;99.90;;;;;;5032039;28;20044;-67
2023/10/23 05:55:52;;;;;;;11.75;5.32;;;7.80;99.90;;;;;;5032379;28;20112;-67
2023/10/23 05:58:17;;;;;;;13.38;5.38;;;7.80;99.90;;;;;;5031776;28;20117;-67
2023/10/23 06:00:43;;;;;;;10.65;4.85;;;7.90;99.90;;;;;;5030090;28;20025;-67
2023/10/23 06:03:08;;;;;;;12.70;5.32;;;7.90;99.90;;;;;;5030879;28;20032;-67
2023/10/23 06:05:40;;;;;;;24.23;11.90;;;7.90;99.90;;;;;;5030830;28;20021;-66
2023/10/23 06:08:06;;;;;;;65.38;26.02;;;7.90;99.90;;;;;;5031699;28;20021;-67
2023/10/23 06:10:31;;;;;;;83.50;36.13;;;7.90;99.90;;;;;;5044870;28;20462;-67
2023/10/23 06:12:57;;;;;;;29.55;14.32;;;7.80;99.90;;;;;;5031597;28;20056;-67
2023/10/23 06:15:22;;;;;;;18.15;8.82;;;7.80;99.90;;;;;;5031961;28;20041;-67
2023/10/23 06:17:51;;;;;;;31.50;16.83;;;7.80;99.90;;;;;;5031167;28;20064;-68
2023/10/23 06:20:16;;;;;;;26.50;13.43;;;7.90;99.90;;;;;;5031913;28;20132;-67
2023/10/23 06:22:42;;;;;;;15.40;8.60;;;8.00;99.90;;;;;;5032470;28;20120;-67
2023/10/23 06:25:08;;;;;;;12.38;4.65;;;8.10;99.90;;;;;;5028467;28;20034;-68
2023/10/23 06:27:33;;;;;;;15.32;4.43;;;8.30;99.90;;;;;;5030436;28;20029;-67
2023/10/23 06:29:59;;;;;;;31.95;5.00;;;8.30;99.90;;;;;;5032012;28;20029;-67
2023/10/23 06:32:24;;;;;;;82.05;8.32;;;8.40;99.90;;;;;;5032572;28;20075;-67
2023/10/23 06:34:51;;;;;;;41.20;7.05;;;8.50;99.90;;;;;;5031621;28;20025;-67
2023/10/23 06:37:17;;;;;;;35.08;5.65;;;8.50;99.90;;;;;;5030854;28;20017;-67
2023/10/23 06:39:42;;;;;;;38.13;6.93;;;8.60;99.90;;;;;;5026658;28;20045;-67
2023/10/23 06:42:08;;;;;;;78.38;8.07;;;8.70;99.90;;;;;;5030328;28;20422;-67
2023/10/23 06:44:33;;;;;;;70.75;7.18;;;8.80;99.90;;;;;;5029973;28;20022;-67
2023/10/23 06:46:59;;;;;;;30.48;5.95;;;8.80;99.90;;;;;;5028934;28;20116;-67
2023/10/23 06:49:25;;;;;;;78.47;8.02;;;8.90;99.90;;;;;;5029598;28;20490;-67
2023/10/23 06:51:50;;;;;;;82.88;8.15;;;8.90;99.90;;;;;;5028021;28;20037;-67
2023/10/23 06:54:16;;;;;;;46.58;8.63;;;8.90;99.90;;;;;;5028958;28;20032;-67
2023/10/23 06:56:41;;;;;;;19.75;7.72;;;9.00;99.90;;;;;;5028461;28;20113;-67
2023/10/23 06:59:07;;;;;;;20.13;7.22;;;9.10;99.90;;;;;;5030095;28;20121;-67
2023/10/23 07:01:33;;;;;;;43.47;7.75;;;9.20;99.90;;;;;;5027764;28;20030;-68
2023/10/23 07:03:58;;;;;;;65.95;7.65;;;9.20;99.90;;;;;;5030243;28;20033;-67
2023/10/23 07:06:24;;;;;;;98.75;9.65;;;9.40;99.90;;;;;;5029570;28;20025;-67
2023/10/23 07:08:49;;;;;;;35.70;7.10;;;9.40;99.90;;;;;;5029795;28;20017;-67
2023/10/23 07:11:17;;;;;;;66.88;7.93;;;9.40;99.90;;;;;;5023345;28;20045;-67
2023/10/23 07:13:43;;;;;;;21.55;6.97;;;9.40;99.90;;;;;;5026901;28;20104;-66
2023/10/23 07:16:09;;;;;;;33.80;7.65;;;9.40;99.90;;;;;;5023346;28;20491;-67
2023/10/23 07:18:34;;;;;;;38.25;7.90;;;9.50;99.90;;;;;;5029386;28;20030;-67
2023/10/23 07:21:00;;;;;;;22.02;7.30;;;9.50;99.90;;;;;;5026846;28;20026;-67
2023/10/23 07:23:28;;;;;;;14.23;6.55;;;9.70;99.90;;;;;;5044148;28;20108;-67
2023/10/23 07:26:10;;;;;;;33.53;7.25;;;9.70;99.90;;;;;;5029766;28;20064;-68
2023/10/23 07:28:39;;;;;;;23.10;8.63;;;9.80;99.90;;;;;;5028206;28;20014;-67
2023/10/23 07:31:05;;;;;;;23.17;6.50;;;9.80;99.90;;;;;;5029081;28;20025;-67
2023/10/23 07:33:31;;;;;;;11.85;6.60;;;9.80;99.90;;;;;;5025733;28;20124;-67
2023/10/23 07:36:18;;;;;;;14.52;6.47;;;9.80;99.90;;;;;;5030073;28;20120;-67
2023/10/23 07:38:49;;;;;;;17.73;7.25;;;9.80;99.90;;;;;;5025727;28;20036;-67
2023/10/23 07:41:15;;;;;;;13.85;5.70;;;9.80;99.90;;;;;;5030188;28;20052;-66
2023/10/23 07:43:41;;;;;;;16.17;5.90;;;9.90;99.90;;;;;;5028241;28;20017;-67
2023/10/23 07:46:10;;;;;;;13.18;5.80;;;9.90;99.90;;;;;;5030510;28;20025;-67
2023/10/23 07:48:37;;;;;;;28.48;6.75;;;9.90;99.90;;;;;;5026405;28;20029;-67
2023/10/23 07:51:06;;;;;;;20.30;6.65;;;9.90;99.90;;;;;;5043479;28;20044;-67
2023/10/23 07:53:35;;;;;;;15.60;7.07;;;9.90;99.90;;;;;;5027727;28;20497;-67
2023/10/23 07:56:01;;;;;;;16.73;6.55;;;10.00;99.90;;;;;;5029114;28;20017;-67
2023/10/23 07:58:28;;;;;;;14.48;6.70;;;10.00;99.90;;;;;;5027092;28;20029;-67
2023/10/23 08:01:10;;;;;;;11.52;6.75;;;10.00;99.90;;;;;;5038712;28;20494;-67
2023/10/23 08:03:36;;;;;;;15.93;7.00;;;10.10;99.90;;;;;;5029902;28;20033;-67
2023/10/23 08:06:03;;;;;;;11.80;6.47;;;10.20;99.90;;;;;;5030791;28;20018;-67
2023/10/23 08:08:31;;;;;;;13.63;6.03;;;10.30;99.90;;;;;;5027725;28;20022;-67
2023/10/23 08:10:56;;;;;;;8.57;6.60;;;10.40;99.90;;;;;;5028577;28;20036;-67
2023/10/23 08:13:22;;;;;;;12.25;5.78;;;10.40;99.90;;;;;;5030443;28;20025;-66
2023/10/23 08:15:49;;;;;;;22.65;5.90;;;10.50;99.90;;;;;;5025553;28;20030;-66
2023/10/23 08:18:15;;;;;;;11.70;5.82;;;10.50;99.90;;;;;;5028312;28;20025;-67
2023/10/23 08:20:40;;;;;;;8.25;6.22;;;10.60;99.90;;;;;;5028227;28;20445;-67
2023/10/23 08:23:06;;;;;;;8.40;5.45;;;10.70;99.90;;;;;;5030199;28;20025;-67
2023/10/23 08:25:31;;;;;;;8.23;5.35;;;10.70;99.90;;;;;;5030712;28;20195;-67
2023/10/23 08:27:57;;;;;;;8.52;5.05;;;10.80;99.90;;;;;;5029666;28;20071;-67
2023/10/23 08:30:22;;;;;;;6.97;4.88;;;10.80;99.90;;;;;;5024601;28;20486;-67
2023/10/23 08:32:48;;;;;;;9.27;5.05;;;10.90;99.90;;;;;;5025853;28;20025;-67
2023/10/23 08:35:14;;;;;;;6.85;4.35;;;10.90;99.90;;;;;;5029402;28;20142;-67
2023/10/23 08:37:39;;;;;;;9.35;5.70;;;10.90;99.90;;;;;;5026014;28;20029;-67
2023/10/23 08:40:06;;;;;;;11.85;5.80;;;10.90;99.90;;;;;;5024679;28;20568;-67
2023/10/23 08:42:34;;;;;;;10.50;5.63;;;11.00;99.90;;;;;;5026487;28;20017;-67
2023/10/23 08:45:00;;;;;;;7.03;4.97;;;11.00;99.90;;;;;;5030387;28;20030;-67
2023/10/23 08:47:26;;;;;;;8.07;5.13;;;11.00;99.90;;;;;;5024157;28;20364;-68
2023/10/23 08:49:53;;;;;;;5.85;4.57;;;11.00;99.90;;;;;;5020326;28;20029;-67
2023/10/23 08:52:21;;;;;;;7.15;4.82;;;11.10;99.90;;;;;;5025671;28;20025;-68
2023/10/23 08:54:50;;;;;;;7.20;4.90;;;11.20;99.90;;;;;;5033127;28;20024;-67
2023/10/23 08:57:18;;;;;;;7.07;4.40;;;11.30;99.90;;;;;;5028088;28;20083;-67
2023/10/23 08:59:44;;;;;;;10.77;4.72;;;11.30;99.90;;;;;;5031311;28;20034;-68
2023/10/23 09:02:10;;;;;;;8.20;5.40;;;11.20;99.90;;;;;;5007447;28;20026;-67
2023/10/23 09:04:35;;;;;;;8.32;4.00;;;11.30;99.90;;;;;;5029439;28;20531;-67
2023/10/23 09:07:01;;;;;;;9.57;4.97;;;11.20;99.90;;;;;;5027843;28;20045;-67
2023/10/23 09:09:28;;;;;;;9.43;4.38;;;11.30;99.90;;;;;;5025781;28;20099;-67
2023/10/23 09:11:54;;;;;;;10.85;5.03;;;11.50;99.90;;;;;;5027157;28;20575;-67
2023/10/23 09:14:27;;;;;;;20.00;4.72;;;11.60;99.90;;;;;;5027811;28;20120;-67
2023/10/23 09:16:54;;;;;;;;;;;11.70;99.90;;;;;;5043804;28;20510;-67
2023/10/23 09:19:38;;;;;;;4.85;3.55;;;11.70;99.90;;;;;;5033847;28;19948;-67
2023/10/23 09:22:06;;;;;;;5.80;3.25;;;11.80;99.90;;;;;;5033188;28;20025;-67
2023/10/23 09:24:32;;;;;;;5.20;3.90;;;11.90;99.90;;;;;;5028131;28;20443;-67
2023/10/23 09:26:58;;;;;;;7.80;4.10;;;11.90;99.90;;;;;;5024429;28;20041;-67
2023/10/23 09:29:25;;;;;;;9.23;5.32;;;11.80;99.90;;;;;;5030850;28;20084;-68
2023/10/23 09:31:53;;;;;;;4.32;3.50;;;11.90;99.90;;;;;;5028186;28;20029;-67
2023/10/23 09:34:19;;;;;;;6.00;3.65;;;11.90;99.90;;;;;;5034342;28;20029;-67
2023/10/23 09:36:46;;;;;;;10.55;3.70;;;11.90;99.90;;;;;;5031061;28;20134;-67
2023/10/23 09:39:12;;;;;;;8.82;4.25;;;11.90;99.90;;;;;;5034065;28;20571;-67
2023/10/23 09:41:38;;;;;;;5.22;3.60;;;12.00;99.90;;;;;;5029408;28;20029;-67
2023/10/23 09:44:04;;;;;;;4.93;3.28;;;12.10;99.90;;;;;;5032482;28;20018;-67
2023/10/23 09:46:31;;;;;;;7.00;3.67;;;12.30;99.90;;;;;;5031777;28;20172;-68
2023/10/23 09:49:03;;;;;;;7.75;4.30;;;12.30;99.90;;;;;;5024524;28;20049;-67
2023/10/23 09:51:37;;;;;;;5.57;3.53;;;12.50;99.90;;;;;;5031621;28;20033;-69
2023/10/23 09:54:12;;;;;;;11.77;3.10;;;12.60;99.90;;;;;;5030061;28;20033;-67
2023/10/23 09:56:39;;;;;;;6.13;3.47;;;12.70;99.90;;;;;;5028243;28;20029;-67
2023/10/23 09:59:07;;;;;;;7.07;3.53;;;12.60;99.90;;;;;;5032731;28;20083;-67
2023/10/23 10:01:40;;;;;;;4.53;2.65;;;12.60;99.90;;;;;;5029941;28;20037;-68
2023/10/23 10:04:25;;;;;;;7.18;2.97;;;12.60;99.90;;;;;;5045809;28;20017;-68
2023/10/23 10:06:55;;;;;;;5.75;2.75;;;12.60;99.90;;;;;;5039162;28;20025;-67
2023/10/23 10:09:24;;;;;;;4.40;2.67;;;12.40;99.90;;;;;;5031393;28;20531;-67
2023/10/23 10:11:54;;;;;;;6.95;3.22;;;12.40;99.90;;;;;;5019335;28;20936;-69
2023/10/23 10:14:21;;;;;;;7.20;2.65;;;12.40;99.90;;;;;;5037713;28;20022;-69
2023/10/23 10:16:46;;;;;;;4.43;2.47;;;12.60;99.90;;;;;;5027039;28;20148;-69
2023/10/23 10:19:12;;;;;;;8.50;3.05;;;12.50;99.90;;;;;;5028853;28;20514;-69
2023/10/23 10:21:50;;;;;;;5.35;2.50;;;12.60;99.90;;;;;;5041989;28;20690;-69
2023/10/23 10:24:18;;;;;;;7.00;2.67;;;12.70;99.90;;;;;;5029271;28;20032;-67
2023/10/23 10:26:44;;;;;;;10.23;2.90;;;12.90;99.90;;;;;;5036937;28;20044;-67
2023/10/23 10:29:10;;;;;;;3.05;1.90;;;13.10;99.90;;;;;;5036577;28;20500;-69
2023/10/23 10:32:10;;;;;;;3.90;2.22;;;13.30;99.90;;;;;;5031532;28;20060;-67
2023/10/23 10:34:45;;;;;;;3.58;1.83;;;13.50;99.90;;;;;;5004615;28;20057;-67
2023/10/23 10:37:11;;;;;;;2.50;1.13;;;13.80;99.90;;;;;;5040839;28;20407;-69
2023/10/23 10:39:52;;;;;;;4.65;1.60;;;13.90;99.90;;;;;;5040784;28;20391;-69
2023/10/23 10:42:19;;;;;;;5.97;1.38;;;14.00;99.90;;;;;;5020420;28;20029;-70
2023/10/23 10:44:54;;;;;;;4.78;1.52;;;14.10;99.90;;;;;;5002020;28;20033;-67
2023/10/23 10:47:21;;;;;;;3.95;1.83;;;14.20;99.90;;;;;;5026501;28;20021;-67
2023/10/23 10:49:47;;;;;;;3.63;1.88;;;14.00;99.90;;;;;;5029011;28;20025;-67
2023/10/23 10:52:32;;;;;;;3.85;1.27;;;14.00;99.90;;;;;;5030713;28;20037;-67
2023/10/23 10:55:04;;;;;;;3.05;1.35;;;14.10;99.90;;;;;;5030774;28;20076;-67
2023/10/23 10:57:30;;;;;;;3.05;1.60;;;14.20;99.90;;;;;;5027759;28;20014;-67
2023/10/23 10:59:58;;;;;;;2.03;1.10;;;14.20;99.90;;;;;;5026720;28;20033;-67
2023/10/23 11:02:24;;;;;;;3.83;1.60;;;14.40;99.90;;;;;;5028834;28;20355;-67
2023/10/23 11:04:50;;;;;;;4.38;1.25;;;14.50;99.90;;;;;;5035620;28;20561;-67
2023/10/23 11:07:23;;;;;;;2.08;1.00;;;14.60;99.90;;;;;;5029724;28;20398;-67
2023/10/23 11:09:49;;;;;;;;;;;14.70;99.90;;;;;;5029023;28;20038;-68
2023/10/23 11:12:18;;;;;;;2.40;1.00;;;14.70;99.90;;;;;;5029511;28;19916;-67
2023/10/23 11:14:44;;;;;;;3.08;1.73;;;14.50;99.90;;;;;;5027940;28;20079;-67
2023/10/23 11:17:10;;;;;;;2.45;1.17;;;14.80;99.90;;;;;;5026675;28;20486;-67
2023/10/23 11:19:35;;;;;;;3.17;1.05;;;14.80;99.90;;;;;;5031251;28;20059;-67
2023/10/23 11:22:12;;;;;;;2.47;1.20;;;14.70;99.90;;;;;;5030636;28;20022;-67
2023/10/23 11:24:39;;;;;;;1.08;0.82;;;14.80;99.90;;;;;;5025763;28;20036;-67
2023/10/23 11:27:05;;;;;;;2.78;1.10;;;14.60;99.90;;;;;;5033972;28;20017;-67
2023/10/23 11:29:49;;;;;;;3.55;1.02;;;14.50;99.90;;;;;;5027383;28;20028;-67
2023/10/23 11:32:16;;;;;;;4.47;1.17;;;14.40;99.90;;;;;;5024364;28;20581;-67
2023/10/23 11:34:42;;;;;;;3.70;1.50;;;14.40;99.90;;;;;;5029446;28;20026;-67
2023/10/23 11:37:10;;;;;;;3.05;1.42;;;14.70;99.90;;;;;;5018170;28;20387;-67
2023/10/23 11:39:37;;;;;;;3.60;1.13;;;14.70;99.90;;;;;;5022698;28;20038;-68
2023/10/23 11:42:06;;;;;;;2.83;1.40;;;14.70;99.90;;;;;;5026915;28;20036;-67
2023/10/23 11:44:36;;;;;;;4.00;1.00;;;14.60;99.90;;;;;;5031051;28;20017;-67
2023/10/23 11:47:07;;;;;;;4.65;0.90;;;14.60;99.90;;;;;;5018644;28;20050;-67
2023/10/23 11:49:33;;;;;;;2.85;1.17;;;14.70;99.90;;;;;;5030200;28;20041;-68
2023/10/23 11:52:00;;;;;;;2.50;1.10;;;14.80;99.90;;;;;;5030633;28;20104;-67
2023/10/23 11:54:26;;;;;;;5.80;0.98;;;14.90;99.90;;;;;;5025347;28;20075;-67
2023/10/23 11:56:56;;;;;;;1.50;0.80;;;14.90;99.90;;;;;;5024564;28;20061;-68
2023/10/23 11:59:25;;;;;;;2.70;1.00;;;14.80;99.90;;;;;;5022599;28;20022;-68
2023/10/23 12:01:52;;;;;;;4.82;1.13;;;14.80;99.90;;;;;;5023438;28;20029;-68
2023/10/23 12:04:18;;;;;;;1.67;0.73;;;14.90;99.90;;;;;;5030251;28;20060;-67
2023/10/23 12:06:44;;;;;;;4.82;1.70;;;15.00;99.90;;;;;;5018491;28;20684;-68
2023/10/23 12:09:10;;;;;;;8.50;1.10;;;15.00;99.90;;;;;;5042794;28;20063;-67
2023/10/23 12:11:36;;;;;;;7.43;1.00;;;15.00;99.90;;;;;;5070977;28;20575;-68
2023/10/23 12:14:03;;;;;;;2.90;1.00;;;15.00;99.90;;;;;;5068327;28;20094;-67
2023/10/23 12:16:30;;;;;;;2.50;0.82;;;15.00;99.90;;;;;;5068774;28;20013;-67
2023/10/23 12:18:56;;;;;;;6.40;1.02;;;15.00;99.90;;;;;;5059090;28;20033;-67
2023/10/23 12:21:22;;;;;;;3.22;1.08;;;15.00;99.90;;;;;;5071025;28;20036;-68
2023/10/23 12:23:49;;;;;;;3.58;0.93;;;15.10;99.90;;;;;;5072849;28;20115;-68
2023/10/23 12:26:15;;;;;;;5.45;1.17;;;15.10;99.90;;;;;;5063893;28;20056;-67
2023/10/23 12:28:41;;;;;;;4.18;1.00;;;15.10;99.90;;;;;;5065569;28;20040;-67
2023/10/23 12:31:07;;;;;;;3.03;1.30;;;15.10;99.90;;;;;;5062157;28;20032;-67
2023/10/23 12:33:32;;;;;;;4.90;1.15;;;15.10;99.90;;;;;;5069121;28;20047;-69
2023/10/23 12:36:00;;;;;;;5.65;1.13;;;15.10;99.90;;;;;;5054904;28;20039;-67
2023/10/23 12:38:27;;;;;;;4.30;1.55;;;15.10;99.90;;;;;;5047334;28;20052;-67
2023/10/23 12:40:53;;;;;;;7.10;1.08;;;15.30;99.90;;;;;;5023167;28;20503;-67
2023/10/23 12:43:18;;;;;;;4.25;0.98;;;15.30;99.90;;;;;;5027425;28;20045;-67
2023/10/23 12:45:44;;;;;;;1.85;0.77;;;15.20;99.90;;;;;;5032570;28;20067;-67
2023/10/23 12:48:13;;;;;;;3.05;1.10;;;15.40;99.90;;;;;;5031263;28;20034;-69